createdAt,value
2022-08-22T00:02:17.980Z,101123.31
2022-08-22T00:02:49.791Z,101127.34
2022-08-22T00:03:00.776Z,101135.53
2022-08-22T00:03:09.411Z,101120.31
2022-08-22T00:04:56.804Z,101130.47
2022-08-22T00:07:48.074Z,101126.25
2022-08-22T00:10:25.464Z,101133.56
2022-08-22T00:13:15.270Z,101132.38
2022-08-22T00:15:58.239Z,101128.31
2022-08-22T00:18:37.437Z,101123.72
2022-08-22T00:21:54.919Z,101124.16
2022-08-22T00:24:48.040Z,101118.03
2022-08-22T00:27:20.725Z,101120.53
2022-08-22T00:30:11.122Z,101120.19
2022-08-22T00:32:59.510Z,101120.63
2022-08-22T00:35:40.587Z,101125.38
2022-08-22T00:38:30.557Z,101124.44
2022-08-22T00:41:21.529Z,101129.94
2022-08-22T00:43:57.179Z,101121.97
2022-08-22T00:46:32.844Z,101130.41
2022-08-22T00:49:32.905Z,101129.59
2022-08-22T00:52:38.360Z,101129.22
2022-08-22T00:55:34.955Z,101125.41
2022-08-22T00:58:32.701Z,101127.09
2022-08-22T01:01:06.906Z,101119.81
2022-08-22T01:03:48.539Z,101118.41
2022-08-22T01:06:14.998Z,101121.88
2022-08-22T01:09:05.991Z,101126.59
2022-08-22T01:11:44.764Z,101121.75
2022-08-22T01:14:36.838Z,101119.53
2022-08-22T01:17:25.147Z,101120.41
2022-08-22T01:20:22.307Z,101121.44
2022-08-22T01:23:26.382Z,101121.28
2022-08-22T01:26:36.265Z,101117.25
2022-08-22T01:29:27.692Z,101119.25
2022-08-22T01:31:58.237Z,101117.31
2022-08-22T01:34:52.860Z,101118.75
2022-08-22T01:37:43.664Z,101121.66
2022-08-22T01:40:35.294Z,101118.03
2022-08-22T01:43:59.930Z,101121.09
2022-08-22T01:46:50.335Z,101119.72
2022-08-22T01:49:39.657Z,101113.00
2022-08-22T01:52:28.958Z,101116.09
2022-08-22T01:55:22.744Z,101114.09
2022-08-22T01:57:56.094Z,101114.31
2022-08-22T02:00:34.804Z,101114.75
2022-08-22T02:03:19.548Z,101113.59
2022-08-22T02:06:07.293Z,101107.69
2022-08-22T02:08:46.612Z,101109.75
2022-08-22T02:11:35.373Z,101110.16
2022-08-22T02:14:30.553Z,101109.41
2022-08-22T02:17:24.936Z,101105.38
2022-08-22T02:19:58.202Z,101110.69
2022-08-22T02:23:03.268Z,101104.41
2022-08-22T02:25:46.307Z,101107.47
2022-08-22T02:28:19.869Z,101111.16
2022-08-22T02:30:52.183Z,101112.19
2022-08-22T02:33:32.547Z,101101.22
2022-08-22T02:36:18.455Z,101108.78
2022-08-22T02:39:28.509Z,101101.25
2022-08-22T02:42:03.508Z,101105.16
2022-08-22T02:44:41.932Z,101100.13
2022-08-22T02:47:31.220Z,101100.13
2022-08-22T02:50:05.769Z,101103.19
2022-08-22T02:52:46.754Z,101104.00
2022-08-22T02:55:19.940Z,101108.53
2022-08-22T02:58:01.069Z,101095.72
2022-08-22T03:00:44.108Z,101091.66
2022-08-22T03:03:24.926Z,101092.69
2022-08-22T03:06:33.290Z,101087.63
2022-08-22T03:09:08.008Z,101086.44
2022-08-22T03:11:39.422Z,101081.78
2022-08-22T03:14:13.904Z,101087.06
2022-08-22T03:16:46.211Z,101088.31
2022-08-22T03:19:19.369Z,101086.69
2022-08-22T03:22:13.695Z,101077.56
2022-08-22T03:24:55.502Z,101079.41
2022-08-22T03:27:32.859Z,101077.78
2022-08-22T03:30:12.277Z,101079.63
2022-08-22T03:32:50.940Z,101082.66
2022-08-22T03:35:44.020Z,101072.53
2022-08-22T03:38:45.815Z,101070.06
2022-08-22T03:41:42.343Z,101066.03
2022-08-22T03:44:42.746Z,101063.81
2022-08-22T03:47:50.330Z,101068.28
2022-08-22T03:50:35.878Z,101061.59
2022-08-22T03:53:31.428Z,101053.06
2022-08-22T03:56:09.987Z,101053.66
2022-08-22T03:58:54.779Z,101051.81
2022-08-22T04:01:57.883Z,101054.88
2022-08-22T04:05:02.516Z,101057.97
2022-08-22T04:08:06.536Z,101052.09
2022-08-22T04:10:51.593Z,101063.47
2022-08-22T04:13:40.812Z,101060.03
2022-08-22T04:16:44.697Z,101066.53
2022-08-22T04:19:48.671Z,101060.03
2022-08-22T04:23:01.576Z,101055.16
2022-08-22T04:25:36.376Z,101060.88
2022-08-22T04:28:15.364Z,101063.31
2022-08-22T04:31:10.183Z,101070.63
2022-08-22T04:33:56.615Z,101069.81
2022-08-22T04:36:45.974Z,101071.06
2022-08-22T04:39:21.797Z,101071.06
2022-08-22T04:42:31.251Z,101067.81
2022-08-22T04:45:02.407Z,101067.19
2022-08-22T04:47:36.819Z,101074.09
2022-08-22T04:50:28.332Z,101065.59
2022-08-22T04:52:59.429Z,101075.94
2022-08-22T04:55:32.442Z,101070.66
2022-08-22T04:58:13.495Z,101067.81
2022-08-22T05:00:54.802Z,101075.75
2022-08-22T05:03:25.636Z,101075.75
2022-08-22T05:05:55.625Z,101083.47
2022-08-22T05:08:26.568Z,101078.97
2022-08-22T05:10:54.488Z,101083.25
2022-08-22T05:13:30.597Z,101083.84
2022-08-22T05:16:03.021Z,101082.03
2022-08-22T05:18:37.665Z,101083.84
2022-08-22T05:21:08.806Z,101078.34
2022-08-22T05:23:42.965Z,101082.00
2022-08-22T05:26:13.516Z,101077.03
2022-08-22T05:28:57.876Z,101085.31
2022-08-22T05:31:35.046Z,101083.44
2022-08-22T05:34:11.225Z,101082.75
2022-08-22T05:36:46.275Z,101086.97
2022-08-22T05:39:25.424Z,101086.78
2022-08-22T05:41:55.118Z,101087.78
2022-08-22T05:44:28.256Z,101094.53
2022-08-22T05:47:07.572Z,101095.34
2022-08-22T05:49:44.982Z,101096.38
2022-08-22T05:52:41.784Z,101094.75
2022-08-22T05:55:25.010Z,101099.22
2022-08-22T05:58:02.905Z,101096.28
2022-08-22T06:00:37.076Z,101094.81
2022-08-22T06:03:09.614Z,101096.66
2022-08-22T06:05:41.869Z,101094.38
2022-08-22T06:08:20.223Z,101103.91
2022-08-22T06:10:56.863Z,101098.56
2022-08-22T06:13:52.905Z,101110.50
2022-08-22T06:16:30.602Z,101110.13
2022-08-22T06:18:57.981Z,101111.91
2022-08-22T06:21:38.533Z,101113.81
2022-08-22T06:24:09.829Z,101121.72
2022-08-22T06:26:39.984Z,101121.47
2022-08-22T06:29:08.506Z,101113.53
2022-08-22T06:31:42.105Z,101107.19
2022-08-22T06:34:16.428Z,101113.38
2022-08-22T06:36:49.636Z,101110.16
2022-08-22T06:39:31.117Z,101110.19
2022-08-22T06:42:01.030Z,101110.81
2022-08-22T06:44:31.865Z,101113.47
2022-08-22T06:47:01.159Z,101112.50
2022-08-22T06:49:30.253Z,101108.72
2022-08-22T06:52:01.755Z,101113.63
2022-08-22T06:54:34.270Z,101114.72
2022-08-22T06:57:03.523Z,101112.69
2022-08-22T06:59:33.009Z,101112.28
2022-08-22T07:02:09.608Z,101106.41
2022-08-22T07:04:37.207Z,101108.94
2022-08-22T07:07:03.835Z,101116.22
2022-08-22T07:09:38.934Z,101115.53
2022-08-22T07:12:14.020Z,101115.75
2022-08-22T07:14:44.417Z,101105.84
2022-08-22T07:17:46.442Z,101115.06
2022-08-22T07:20:24.171Z,101110.91
2022-08-22T07:23:03.454Z,101102.97
2022-08-22T07:25:31.663Z,101103.91
2022-08-22T07:27:58.162Z,101112.06
2022-08-22T07:30:28.978Z,101112.91
2022-08-22T07:33:25.202Z,101115.06
2022-08-22T07:35:55.381Z,101113.34
2022-08-22T07:38:45.261Z,101116.41
2022-08-22T07:41:29.548Z,101116.41
2022-08-22T07:44:05.088Z,101117.69
2022-08-22T07:49:49.710Z,101119.84
2022-08-22T07:52:17.275Z,101122.84
2022-08-22T07:54:50.203Z,101121.47
2022-08-22T07:57:34.974Z,101119.03
2022-08-22T08:00:10.928Z,101121.53
2022-08-22T08:02:45.303Z,101118.53
2022-08-22T08:05:14.295Z,101113.69
2022-08-22T08:07:45.351Z,101113.63
2022-08-22T08:10:17.655Z,101111.19
2022-08-22T08:12:57.984Z,101110.56
2022-08-22T08:15:32.923Z,101105.81
2022-08-22T08:18:05.365Z,101103.84
2022-08-22T08:20:35.499Z,101103.84
2022-08-22T08:23:09.218Z,101097.56
2022-08-22T08:26:10.438Z,101093.91
2022-08-22T08:28:49.828Z,101094.34
2022-08-22T08:31:35.402Z,101086.19
2022-08-22T08:34:12.286Z,101084.28
2022-08-22T08:37:12.854Z,101083.09
2022-08-22T08:39:48.428Z,101073.50
2022-08-22T08:43:10.811Z,101070.84
2022-08-22T08:45:50.100Z,101074.97
2022-08-22T08:48:26.137Z,101072.94
2022-08-22T08:51:14.548Z,101058.25
2022-08-22T08:54:16.023Z,101065.38
2022-08-22T08:57:04.415Z,101061.91
2022-08-22T08:59:56.181Z,101064.38
2022-08-22T09:02:47.755Z,101052.59
2022-08-22T09:05:29.876Z,101055.19
2022-08-22T09:08:34.795Z,101049.59
2022-08-22T09:11:30.153Z,101051.25
2022-08-22T09:14:02.449Z,101044.31
2022-08-22T09:16:29.744Z,101048.41
2022-08-22T09:18:59.159Z,101045.63
2022-08-22T09:22:01.526Z,101041.34
2022-08-22T09:24:46.899Z,101040.09
2022-08-22T09:27:18.413Z,101039.16
2022-08-22T09:29:59.960Z,101042.13
2022-08-22T09:32:38.404Z,101033.47
2022-08-22T09:35:11.589Z,101038.78
2022-08-22T09:37:44.003Z,101032.94
2022-08-22T09:40:25.186Z,101036.50
2022-08-22T09:43:06.452Z,101035.13
2022-08-22T09:45:38.111Z,101022.38
2022-08-22T09:48:26.655Z,101028.25
2022-08-22T09:51:31.856Z,101031.84
2022-08-22T09:54:11.702Z,101025.94
2022-08-22T09:56:48.433Z,101032.47
2022-08-22T09:59:38.973Z,101032.38
2022-08-22T10:02:24.124Z,101037.09
2022-08-22T10:05:07.251Z,101035.50
2022-08-22T10:07:58.567Z,101036.13
2022-08-22T10:10:31.127Z,101028.09
2022-08-22T10:13:03.335Z,101028.94
2022-08-22T10:15:42.030Z,101031.31
2022-08-22T10:18:33.415Z,101027.09
2022-08-22T10:21:11.807Z,101027.81
2022-08-22T10:23:48.503Z,101025.97
2022-08-22T10:26:43.482Z,101019.66
2022-08-22T10:29:31.991Z,101020.53
2022-08-22T10:32:27.395Z,101021.94
2022-08-22T10:34:59.313Z,101019.22
2022-08-22T10:37:32.475Z,101020.59
2022-08-22T10:40:11.100Z,101012.56
2022-08-22T10:42:51.644Z,101027.53
2022-08-22T10:45:36.598Z,101023.84
2022-08-22T10:48:08.022Z,101013.06
2022-08-22T10:50:44.757Z,101011.53
2022-08-22T10:53:33.451Z,101015.28
2022-08-22T10:56:13.314Z,101011.25
2022-08-22T10:59:19.489Z,101003.78
2022-08-22T11:02:08.206Z,101005.91
2022-08-22T11:04:40.929Z,101006.72
2022-08-22T11:07:39.666Z,100993.31
2022-08-22T11:10:45.116Z,100992.78
2022-08-22T11:13:25.368Z,100991.19
2022-08-22T11:16:06.916Z,100991.44
2022-08-22T11:19:02.731Z,100982.88
2022-08-22T11:22:06.828Z,100991.75
2022-08-22T11:25:07.358Z,100985.78
2022-08-22T11:28:04.937Z,100993.59
2022-08-22T11:30:57.742Z,100980.16
2022-08-22T11:33:39.107Z,100974.47
2022-08-22T11:36:31.045Z,100972.78
2022-08-22T11:39:09.954Z,100969.34
2022-08-22T11:41:45.373Z,100972.41
2022-08-22T11:44:31.319Z,100975.59
2022-08-22T11:47:01.671Z,100970.22
2022-08-22T11:49:43.427Z,100967.63
2022-08-22T11:52:29.168Z,100975.66
2022-08-22T11:55:32.539Z,100969.97
2022-08-22T11:58:27.248Z,100973.44
2022-08-22T12:01:17.030Z,100970.28
2022-08-22T12:03:58.195Z,100971.03
2022-08-22T12:06:37.301Z,100968.59
2022-08-22T12:09:17.939Z,100960.78
2022-08-22T12:12:08.427Z,100964.34
2022-08-22T12:14:54.707Z,100967.63
2022-08-22T12:17:55.451Z,100956.09
2022-08-22T12:20:25.979Z,100957.63
2022-08-22T12:23:21.828Z,100950.47
2022-08-22T12:26:43.748Z,100953.25
2022-08-22T12:29:33.808Z,100957.91
2022-08-22T12:32:01.568Z,100952.84
2022-08-22T12:34:34.645Z,100950.47
2022-08-22T12:37:10.059Z,100952.84
2022-08-22T12:40:10.026Z,100947.66
2022-08-22T12:42:49.327Z,100942.19
2022-08-22T12:45:26.738Z,100943.75
2022-08-22T12:47:53.288Z,100944.72
2022-08-22T12:50:44.479Z,100940.09
2022-08-22T12:53:20.622Z,100925.50
2022-08-22T12:56:06.204Z,100922.16
2022-08-22T12:59:05.916Z,100923.94
2022-08-22T13:01:43.194Z,100927.69
2022-08-22T13:04:32.479Z,100935.69
2022-08-22T13:07:02.966Z,100932.25
2022-08-22T13:09:33.855Z,100924.63
2022-08-22T13:12:21.110Z,100930.25
2022-08-22T13:14:51.295Z,100920.03
2022-08-22T13:17:24.588Z,100912.16
2022-08-22T13:19:54.738Z,100914.94
2022-08-22T13:22:27.378Z,100914.19
2022-08-22T13:25:05.634Z,100917.16
2022-08-22T13:27:51.045Z,100911.47
2022-08-22T13:30:27.779Z,100917.97
2022-08-22T13:33:02.775Z,100912.31
2022-08-22T13:35:35.762Z,100913.09
2022-08-22T13:38:13.291Z,100906.03
2022-08-22T13:40:45.519Z,100910.06
2022-08-22T13:43:19.519Z,100907.50
2022-08-22T13:45:55.781Z,100903.03
2022-08-22T13:48:28.465Z,100903.69
2022-08-22T13:51:08.649Z,100899.84
2022-08-22T13:53:50.429Z,100903.97
2022-08-22T13:56:47.116Z,100898.91
2022-08-22T13:59:50.100Z,100894.06
2022-08-22T14:02:43.277Z,100893.22
2022-08-22T14:05:16.725Z,100888.19
2022-08-22T14:08:12.872Z,100886.75
2022-08-22T14:10:46.466Z,100890.97
2022-08-22T14:13:24.911Z,100888.78
2022-08-22T14:16:12.083Z,100882.38
2022-08-22T14:18:49.334Z,100879.91
2022-08-22T14:21:41.302Z,100883.00
2022-08-22T14:24:25.805Z,100886.25
2022-08-22T14:26:58.426Z,100884.69
2022-08-22T14:29:31.719Z,100887.09
2022-08-22T14:32:49.222Z,100879.94
2022-08-22T14:35:35.297Z,100875.25
2022-08-22T14:38:30.245Z,100884.13
2022-08-22T14:41:17.327Z,100878.19
2022-08-22T14:43:58.285Z,100875.22
2022-08-22T14:46:33.481Z,100870.34
2022-08-22T14:49:03.081Z,100874.47
2022-08-22T14:51:30.079Z,100870.63
2022-08-22T14:54:21.272Z,100858.19
2022-08-22T14:56:51.142Z,100859.59
2022-08-22T14:59:52.501Z,100862.72
2022-08-22T15:02:21.810Z,100853.81
2022-08-22T15:04:54.044Z,100856.31
2022-08-22T15:07:29.199Z,100844.50
2022-08-22T15:10:20.810Z,100840.78
2022-08-22T15:12:53.748Z,100839.13
2022-08-22T15:15:49.582Z,100839.97
2022-08-22T15:18:34.224Z,100834.59
2022-08-22T15:21:11.332Z,100831.97
2022-08-22T15:23:44.801Z,100836.56
2022-08-22T15:26:32.812Z,100830.34
2022-08-22T15:29:07.800Z,100828.94
2022-08-22T15:31:36.511Z,100829.69
2022-08-22T15:34:24.399Z,100827.09
2022-08-22T15:37:07.877Z,100832.53
2022-08-22T15:40:16.811Z,100827.50
2022-08-22T15:42:50.612Z,100819.88
2022-08-22T15:45:30.884Z,100820.28
2022-08-22T15:48:04.521Z,100828.34
2022-08-22T15:51:04.784Z,100821.31
2022-08-22T15:53:44.816Z,100825.22
2022-08-22T15:56:11.333Z,100823.25
2022-08-22T15:58:48.724Z,100823.28
2022-08-22T16:01:19.155Z,100825.91
2022-08-22T16:04:06.764Z,100822.78
2022-08-22T16:06:50.593Z,100826.22
2022-08-22T16:09:46.179Z,100824.06
2022-08-22T16:12:37.221Z,100835.03
2022-08-22T16:15:05.764Z,100817.16
2022-08-22T16:17:42.642Z,100825.28
2022-08-22T16:20:09.957Z,100832.09
2022-08-22T16:22:55.925Z,100832.47
2022-08-22T16:25:50.206Z,100827.06
2022-08-22T16:28:57.722Z,100832.41
2022-08-22T16:31:37.045Z,100826.38
2022-08-22T16:34:16.146Z,100824.47
2022-08-22T16:36:42.751Z,100822.84
2022-08-22T16:39:21.554Z,100827.69
2022-08-22T16:41:54.399Z,100822.81
2022-08-22T16:44:29.842Z,100820.22
2022-08-22T16:47:17.702Z,100828.31
2022-08-22T16:49:50.273Z,100820.28
2022-08-22T16:52:26.070Z,100816.19
2022-08-22T16:55:05.811Z,100816.59
2022-08-22T16:58:06.871Z,100809.03
2022-08-22T17:00:36.431Z,100813.84
2022-08-22T17:03:30.184Z,100808.00
2022-08-22T17:06:34.396Z,100816.47
2022-08-22T17:09:19.454Z,100810.84
2022-08-22T17:12:11.596Z,100811.59
2022-08-22T17:15:20.875Z,100808.94
2022-08-22T17:18:01.682Z,100806.53
2022-08-22T17:20:38.496Z,100805.97
2022-08-22T17:23:23.531Z,100803.41
2022-08-22T17:26:07.619Z,100799.91
2022-08-22T17:28:52.145Z,100798.38
2022-08-22T17:31:36.968Z,100806.34
2022-08-22T17:34:14.226Z,100805.78
2022-08-22T17:36:56.047Z,100803.13
2022-08-22T17:39:59.929Z,100805.81
2022-08-22T17:42:29.541Z,100809.59
2022-08-22T17:45:03.384Z,100809.03
2022-08-22T17:47:59.359Z,100817.13
2022-08-22T17:50:47.276Z,100807.50
2022-08-22T17:53:28.593Z,100810.44
2022-08-22T17:56:13.678Z,100816.31
2022-08-22T17:58:53.468Z,100821.41
2022-08-22T18:01:48.656Z,100825.97
2022-08-22T18:04:43.286Z,100824.09
2022-08-22T18:07:15.222Z,100824.38
2022-08-22T18:09:50.522Z,100825.19
2022-08-22T18:12:35.785Z,100825.19
2022-08-22T18:15:09.156Z,100828.41
2022-08-22T18:17:42.552Z,100827.63
2022-08-22T18:20:24.735Z,100820.41
2022-08-22T18:23:00.827Z,100831.09
2022-08-22T18:26:02.260Z,100820.13
2022-08-22T18:28:50.675Z,100826.56
2022-08-22T18:31:54.022Z,100826.56
2022-08-22T18:34:42.255Z,100838.31
2022-08-22T18:37:30.804Z,100837.00
2022-08-22T18:40:03.154Z,100834.84
2022-08-22T18:42:32.800Z,100834.03
2022-08-22T18:44:59.382Z,100837.50
2022-08-22T18:47:33.023Z,100837.22
2022-08-22T18:50:22.686Z,100842.28
2022-08-22T18:52:51.236Z,100851.38
2022-08-22T18:55:27.411Z,100846.03
2022-08-22T18:58:18.858Z,100848.47
2022-08-22T19:00:52.645Z,100854.34
2022-08-22T19:03:28.981Z,100858.09
2022-08-22T19:06:21.722Z,100855.13
2022-08-22T19:09:12.871Z,100855.13
2022-08-22T19:12:01.791Z,100865.28
2022-08-22T19:14:55.968Z,100863.66
2022-08-22T19:17:43.831Z,100866.28
2022-08-22T19:20:55.427Z,100874.72
2022-08-22T19:23:34.123Z,100880.31
2022-08-22T19:26:25.979Z,100875.69
2022-08-22T19:29:18.717Z,100877.34
2022-08-22T19:31:48.285Z,100878.91
2022-08-22T19:34:25.700Z,100880.78
2022-08-22T19:37:32.972Z,100872.06
2022-08-22T19:40:05.698Z,100882.00
2022-08-22T19:42:36.388Z,100875.63
2022-08-22T19:45:29.050Z,100880.44
2022-08-22T19:48:14.078Z,100875.00
2022-08-22T19:50:42.903Z,100880.91
2022-08-22T19:53:09.727Z,100877.50
2022-08-22T19:55:36.716Z,100883.09
2022-08-22T19:58:31.934Z,100880.97
2022-08-22T20:01:21.101Z,100885.31
2022-08-22T20:03:57.832Z,100886.84
2022-08-22T20:06:44.608Z,100888.63
2022-08-22T20:09:50.129Z,100890.78
2022-08-22T20:12:42.807Z,100887.78
2022-08-22T20:15:20.352Z,100890.00
2022-08-22T20:18:11.619Z,100886.44
2022-08-22T20:20:38.571Z,100897.06
2022-08-22T20:23:11.029Z,100887.56
2022-08-22T20:25:52.795Z,100886.47
2022-08-22T20:28:40.488Z,100888.94
2022-08-22T20:31:12.336Z,100889.69
2022-08-22T20:33:43.853Z,100883.88
2022-08-22T20:36:28.584Z,100880.38
2022-08-22T20:39:02.945Z,100879.78
2022-08-22T20:41:40.559Z,100876.69
2022-08-22T20:44:16.558Z,100883.38
2022-08-22T20:46:46.093Z,100882.78
2022-08-22T20:49:23.618Z,100877.47
2022-08-22T20:51:57.390Z,100885.78
2022-08-22T20:54:27.474Z,100874.84
2022-08-22T20:56:56.974Z,100879.13
2022-08-22T20:59:37.547Z,100870.59
2022-08-22T21:02:19.812Z,100866.56
2022-08-22T21:04:57.727Z,100880.16
2022-08-22T21:07:40.559Z,100878.00
2022-08-22T21:10:40.123Z,100875.59
2022-08-22T21:13:22.311Z,100876.91
2022-08-22T21:16:02.488Z,100877.16
2022-08-22T21:18:33.512Z,100879.53
2022-08-22T21:21:10.499Z,100876.31
2022-08-22T21:23:49.393Z,100876.00
2022-08-22T21:26:24.369Z,100881.34
2022-08-22T21:28:50.878Z,100882.63
2022-08-22T21:31:21.948Z,100883.16
2022-08-22T21:33:50.445Z,100873.78
2022-08-22T21:36:21.741Z,100877.78
2022-08-22T21:38:59.047Z,100876.66
2022-08-22T21:41:27.076Z,100877.41
2022-08-22T21:43:54.258Z,100880.34
2022-08-22T21:46:26.529Z,100873.34
2022-08-22T21:49:03.716Z,100874.91
2022-08-22T21:51:36.316Z,100879.91
2022-08-22T21:54:24.503Z,100879.59
2022-08-22T21:56:53.467Z,100883.81
2022-08-22T21:59:51.066Z,100879.81
2022-08-22T22:02:40.236Z,100874.69
2022-08-22T22:05:17.772Z,100876.81
2022-08-22T22:07:46.426Z,100880.22
2022-08-22T22:10:16.215Z,100886.03
2022-08-22T22:12:44.938Z,100871.03
2022-08-22T22:15:15.796Z,100878.75
2022-08-22T22:17:43.268Z,100877.63
2022-08-22T22:20:11.163Z,100881.03
2022-08-22T22:22:46.073Z,100875.41
2022-08-22T22:25:40.156Z,100874.28
2022-08-22T22:28:05.385Z,100882.75
2022-08-22T22:30:32.068Z,100882.16
2022-08-22T22:32:58.708Z,100878.94
2022-08-22T22:35:25.572Z,100880.44
2022-08-22T22:37:52.306Z,100879.09
2022-08-22T22:40:19.174Z,100882.00
2022-08-22T22:42:45.867Z,100879.28
2022-08-22T22:45:12.507Z,100882.16
2022-08-22T22:47:39.223Z,100876.81
2022-08-22T22:50:06.907Z,100876.22
2022-08-22T22:52:33.597Z,100880.44
2022-08-22T22:55:05.767Z,100875.84
2022-08-22T22:57:32.462Z,100876.09
2022-08-22T23:00:10.850Z,100870.47
2022-08-22T23:02:37.444Z,100872.56
2022-08-22T23:05:04.944Z,100876.75
2022-08-22T23:07:33.752Z,100870.31
2022-08-22T23:10:01.302Z,100869.50
2022-08-22T23:12:28.296Z,100877.75
2022-08-22T23:14:54.929Z,100866.75
2022-08-22T23:17:21.524Z,100871.78
2022-08-22T23:19:48.382Z,100875.72
2022-08-22T23:22:14.981Z,100881.56
2022-08-22T23:24:41.664Z,100886.06
2022-08-22T23:27:10.135Z,100877.75
2022-08-22T23:29:40.890Z,100882.53
2022-08-22T23:32:09.184Z,100875.81
2022-08-22T23:34:42.569Z,100878.19
2022-08-22T23:37:11.617Z,100879.22
2022-08-22T23:39:38.381Z,100882.69
2022-08-22T23:42:07.252Z,100889.06
2022-08-22T23:44:36.187Z,100884.19
2022-08-22T23:47:04.542Z,100874.84
2022-08-22T23:49:32.306Z,100885.72
2022-08-22T23:51:59.627Z,100884.81
2022-08-22T23:54:27.194Z,100883.53
2022-08-22T23:56:57.616Z,100883.00
2022-08-22T23:59:30.671Z,100884.81
